sensor_id;sensor_type;location;lat;lon;timestamp;pressure;altitude;pressure_sealevel;temperature;humidity
21203;BME280;10759;51.982;9.232;2023-02-18T00:01:34;100786.00;;;7.77;92.13
21203;BME280;10759;51.982;9.232;2023-02-18T00:04:02;100788.75;;;7.76;92.98
21203;BME280;10759;51.982;9.232;2023-02-18T00:06:31;100716.50;;;7.41;93.25
21203;BME280;10759;51.982;9.232;2023-02-18T00:09:00;100806.22;;;7.90;92.90
21203;BME280;10759;51.982;9.232;2023-02-18T00:11:31;100802.78;;;7.85;94.76
21203;BME280;10759;51.982;9.232;2023-02-18T00:14:02;100804.69;;;7.79;95.69
21203;BME280;10759;51.982;9.232;2023-02-18T00:16:32;100796.34;;;7.95;94.32
21203;BME280;10759;51.982;9.232;2023-02-18T00:19:03;100805.19;;;7.98;93.98
21203;BME280;10759;51.982;9.232;2023-02-18T00:21:32;100804.28;;;7.99;94.65
21203;BME280;10759;51.982;9.232;2023-02-18T00:24:01;100748.19;;;7.58;95.87
21203;BME280;10759;51.982;9.232;2023-02-18T00:26:29;100797.97;;;8.03;94.93
21203;BME280;10759;51.982;9.232;2023-02-18T00:28:57;100788.13;;;8.05;94.25
21203;BME280;10759;51.982;9.232;2023-02-18T00:31:27;100791.84;;;7.98;95.35
21203;BME280;10759;51.982;9.232;2023-02-18T00:33:59;100779.75;;;7.80;97.53
21203;BME280;10759;51.982;9.232;2023-02-18T00:36:28;100782.25;;;7.87;97.18
21203;BME280;10759;51.982;9.232;2023-02-18T00:39:00;100774.28;;;7.86;97.32
21203;BME280;10759;51.982;9.232;2023-02-18T00:41:29;100776.19;;;7.81;98.31
21203;BME280;10759;51.982;9.232;2023-02-18T00:43:58;100772.56;;;7.83;99.05
21203;BME280;10759;51.982;9.232;2023-02-18T00:46:26;100688.19;;;7.34;100.00
21203;BME280;10759;51.982;9.232;2023-02-18T00:48:55;100767.16;;;7.86;100.00
21203;BME280;10759;51.982;9.232;2023-02-18T00:51:24;100782.31;;;7.84;100.00
21203;BME280;10759;51.982;9.232;2023-02-18T00:53:53;100761.13;;;7.77;100.00
21203;BME280;10759;51.982;9.232;2023-02-18T00:56:21;100775.03;;;7.92;100.00
21203;BME280;10759;51.982;9.232;2023-02-18T00:58:49;100781.09;;;8.01;100.00
21203;BME280;10759;51.982;9.232;2023-02-18T01:01:18;100739.81;;;7.75;100.00
21203;BME280;10759;51.982;9.232;2023-02-18T01:03:46;100767.91;;;7.93;100.00
21203;BME280;10759;51.982;9.232;2023-02-18T01:06:14;100769.47;;;8.03;100.00
21203;BME280;10759;51.982;9.232;2023-02-18T01:08:44;100732.56;;;7.82;100.00
21203;BME280;10759;51.982;9.232;2023-02-18T01:11:13;100696.13;;;7.81;100.00
21203;BME280;10759;51.982;9.232;2023-02-18T01:13:41;100734.78;;;8.03;100.00
21203;BME280;10759;51.982;9.232;2023-02-18T01:16:09;100775.91;;;8.35;100.00
21203;BME280;10759;51.982;9.232;2023-02-18T01:18:38;100733.56;;;8.18;100.00
21203;BME280;10759;51.982;9.232;2023-02-18T01:21:07;100769.63;;;8.37;100.00
21203;BME280;10759;51.982;9.232;2023-02-18T01:23:36;100746.47;;;8.40;100.00
21203;BME280;10759;51.982;9.232;2023-02-18T01:26:06;100777.59;;;8.41;100.00
21203;BME280;10759;51.982;9.232;2023-02-18T01:28:36;100774.22;;;8.29;100.00
21203;BME280;10759;51.982;9.232;2023-02-18T01:31:06;100768.78;;;8.35;100.00
21203;BME280;10759;51.982;9.232;2023-02-18T01:33:35;100767.31;;;8.22;100.00
21203;BME280;10759;51.982;9.232;2023-02-18T01:36:04;100773.25;;;8.35;100.00
21203;BME280;10759;51.982;9.232;2023-02-18T01:38:33;100769.22;;;8.56;100.00
21203;BME280;10759;51.982;9.232;2023-02-18T01:41:01;100758.03;;;8.40;100.00
21203;BME280;10759;51.982;9.232;2023-02-18T01:43:31;100763.09;;;8.51;100.00
21203;BME280;10759;51.982;9.232;2023-02-18T01:46:05;100752.22;;;8.58;100.00
21203;BME280;10759;51.982;9.232;2023-02-18T01:48:37;100757.88;;;8.46;100.00
21203;BME280;10759;51.982;9.232;2023-02-18T01:51:10;100757.69;;;8.54;100.00
21203;BME280;10759;51.982;9.232;2023-02-18T01:53:48;100766.78;;;8.47;100.00
21203;BME280;10759;51.982;9.232;2023-02-18T01:56:21;100760.22;;;8.60;100.00
21203;BME280;10759;51.982;9.232;2023-02-18T01:58:53;100770.22;;;8.52;100.00
21203;BME280;10759;51.982;9.232;2023-02-18T02:01:23;100758.69;;;8.50;100.00
21203;BME280;10759;51.982;9.232;2023-02-18T02:03:52;100748.09;;;8.45;100.00
21203;BME280;10759;51.982;9.232;2023-02-18T02:06:21;100752.56;;;8.45;100.00
21203;BME280;10759;51.982;9.232;2023-02-18T02:08:53;100733.13;;;8.36;100.00
21203;BME280;10759;51.982;9.232;2023-02-18T02:11:32;100673.44;;;8.41;100.00
21203;BME280;10759;51.982;9.232;2023-02-18T02:14:17;100717.78;;;8.48;100.00
21203;BME280;10759;51.982;9.232;2023-02-18T02:16:52;100719.84;;;8.72;100.00
21203;BME280;10759;51.982;9.232;2023-02-18T02:20:04;100718.09;;;8.71;100.00
21203;BME280;10759;51.982;9.232;2023-02-18T02:25:50;100695.69;;;8.77;100.00
21203;BME280;10759;51.982;9.232;2023-02-18T02:28:39;100708.97;;;8.80;100.00
21203;BME280;10759;51.982;9.232;2023-02-18T02:31:40;100700.84;;;8.83;100.00
21203;BME280;10759;51.982;9.232;2023-02-18T02:37:15;100700.38;;;8.67;100.00
21203;BME280;10759;51.982;9.232;2023-02-18T02:39:58;100685.41;;;8.62;100.00
21203;BME280;10759;51.982;9.232;2023-02-18T02:42:39;100695.69;;;8.77;100.00
21203;BME280;10759;51.982;9.232;2023-02-18T02:45:21;100586.50;;;8.27;100.00
21203;BME280;10759;51.982;9.232;2023-02-18T02:47:56;100601.69;;;8.25;100.00
21203;BME280;10759;51.982;9.232;2023-02-18T02:50:33;100682.41;;;8.74;100.00
21203;BME280;10759;51.982;9.232;2023-02-18T02:53:10;100667.81;;;8.87;100.00
21203;BME280;10759;51.982;9.232;2023-02-18T02:55:40;100618.78;;;8.54;100.00
21203;BME280;10759;51.982;9.232;2023-02-18T02:58:13;100560.63;;;8.29;100.00
21203;BME280;10759;51.982;9.232;2023-02-18T03:00:56;100657.91;;;8.91;100.00
21203;BME280;10759;51.982;9.232;2023-02-18T03:06:45;100621.31;;;8.93;100.00
21203;BME280;10759;51.982;9.232;2023-02-18T03:09:23;100644.63;;;8.88;100.00
21203;BME280;10759;51.982;9.232;2023-02-18T03:12:02;100640.00;;;8.94;100.00
21203;BME280;10759;51.982;9.232;2023-02-18T03:14:41;100642.97;;;8.84;100.00
21203;BME280;10759;51.982;9.232;2023-02-18T03:17:17;100636.56;;;8.89;100.00
21203;BME280;10759;51.982;9.232;2023-02-18T03:19:54;100612.97;;;8.72;100.00
21203;BME280;10759;51.982;9.232;2023-02-18T03:22:27;100633.44;;;9.06;100.00
21203;BME280;10759;51.982;9.232;2023-02-18T03:25:01;100632.28;;;9.15;100.00
21203;BME280;10759;51.982;9.232;2023-02-18T03:27:33;100627.00;;;9.13;100.00
21203;BME280;10759;51.982;9.232;2023-02-18T03:30:09;100630.47;;;9.17;100.00
21203;BME280;10759;51.982;9.232;2023-02-18T03:32:40;100628.09;;;9.06;100.00
21203;BME280;10759;51.982;9.232;2023-02-18T03:35:12;100604.19;;;9.00;100.00
21203;BME280;10759;51.982;9.232;2023-02-18T03:37:44;100448.38;;;8.00;100.00
21203;BME280;10759;51.982;9.232;2023-02-18T03:40:16;100602.25;;;9.05;100.00
21203;BME280;10759;51.982;9.232;2023-02-18T03:42:45;100597.84;;;9.04;100.00
21203;BME280;10759;51.982;9.232;2023-02-18T03:45:13;100598.19;;;8.92;100.00
21203;BME280;10759;51.982;9.232;2023-02-18T03:47:41;100593.38;;;9.05;100.00
21203;BME280;10759;51.982;9.232;2023-02-18T03:50:09;100588.69;;;9.13;100.00
21203;BME280;10759;51.982;9.232;2023-02-18T03:52:38;100591.06;;;9.23;100.00
21203;BME280;10759;51.982;9.232;2023-02-18T03:55:06;100587.69;;;9.17;100.00
21203;BME280;10759;51.982;9.232;2023-02-18T03:57:36;100557.91;;;8.98;100.00
21203;BME280;10759;51.982;9.232;2023-02-18T04:00:06;100572.63;;;9.13;100.00
21203;BME280;10759;51.982;9.232;2023-02-18T04:02:40;100574.63;;;9.06;100.00
21203;BME280;10759;51.982;9.232;2023-02-18T04:05:09;100484.19;;;8.59;100.00
21203;BME280;10759;51.982;9.232;2023-02-18T04:07:37;100522.78;;;8.80;100.00
21203;BME280;10759;51.982;9.232;2023-02-18T04:10:06;100571.91;;;9.08;100.00
21203;BME280;10759;51.982;9.232;2023-02-18T04:12:36;100571.50;;;9.21;100.00
21203;BME280;10759;51.982;9.232;2023-02-18T04:15:05;100565.22;;;9.22;100.00
21203;BME280;10759;51.982;9.232;2023-02-18T04:17:33;100554.47;;;9.26;100.00
21203;BME280;10759;51.982;9.232;2023-02-18T04:20:00;100551.56;;;9.33;100.00
21203;BME280;10759;51.982;9.232;2023-02-18T04:22:30;100554.50;;;9.24;100.00
21203;BME280;10759;51.982;9.232;2023-02-18T04:24:58;100545.63;;;9.22;100.00
21203;BME280;10759;51.982;9.232;2023-02-18T04:27:26;100474.66;;;8.82;100.00
21203;BME280;10759;51.982;9.232;2023-02-18T04:29:56;100543.84;;;9.22;100.00
21203;BME280;10759;51.982;9.232;2023-02-18T04:32:24;100529.72;;;9.17;100.00
21203;BME280;10759;51.982;9.232;2023-02-18T04:34:52;100523.03;;;9.32;100.00
21203;BME280;10759;51.982;9.232;2023-02-18T04:37:20;100520.69;;;9.21;100.00
21203;BME280;10759;51.982;9.232;2023-02-18T04:39:48;100484.41;;;9.13;100.00
21203;BME280;10759;51.982;9.232;2023-02-18T04:42:16;100510.69;;;9.28;100.00
21203;BME280;10759;51.982;9.232;2023-02-18T04:44:44;100515.50;;;9.17;100.00
21203;BME280;10759;51.982;9.232;2023-02-18T04:47:14;100517.19;;;9.19;100.00
21203;BME280;10759;51.982;9.232;2023-02-18T04:49:42;100479.78;;;8.88;100.00
21203;BME280;10759;51.982;9.232;2023-02-18T04:52:10;100504.09;;;9.10;100.00
21203;BME280;10759;51.982;9.232;2023-02-18T04:54:38;100489.25;;;9.00;100.00
21203;BME280;10759;51.982;9.232;2023-02-18T04:57:06;100500.88;;;8.99;100.00
21203;BME280;10759;51.982;9.232;2023-02-18T04:59:34;100438.59;;;8.66;100.00
21203;BME280;10759;51.982;9.232;2023-02-18T05:02:02;100494.66;;;8.98;100.00
21203;BME280;10759;51.982;9.232;2023-02-18T05:04:31;100498.31;;;8.96;100.00
21203;BME280;10759;51.982;9.232;2023-02-18T05:06:59;100500.00;;;8.98;100.00
21203;BME280;10759;51.982;9.232;2023-02-18T05:09:27;100451.84;;;8.69;100.00
21203;BME280;10759;51.982;9.232;2023-02-18T05:11:55;100494.94;;;9.19;100.00
21203;BME280;10759;51.982;9.232;2023-02-18T05:14:23;100488.59;;;9.23;100.00
21203;BME280;10759;51.982;9.232;2023-02-18T05:16:51;100474.31;;;9.22;100.00
21203;BME280;10759;51.982;9.232;2023-02-18T05:19:19;100124.38;;;7.18;100.00
21203;BME280;10759;51.982;9.232;2023-02-18T05:21:48;100463.72;;;9.19;100.00
21203;BME280;10759;51.982;9.232;2023-02-18T05:24:16;100416.91;;;9.06;100.00
21203;BME280;10759;51.982;9.232;2023-02-18T05:26:45;100470.63;;;9.27;100.00
21203;BME280;10759;51.982;9.232;2023-02-18T05:29:12;100436.28;;;9.13;100.00
21203;BME280;10759;51.982;9.232;2023-02-18T05:31:40;100466.13;;;9.29;100.00
21203;BME280;10759;51.982;9.232;2023-02-18T05:34:08;100463.91;;;9.41;100.00
21203;BME280;10759;51.982;9.232;2023-02-18T05:36:36;100453.97;;;9.45;100.00
21203;BME280;10759;51.982;9.232;2023-02-18T05:39:06;100451.09;;;9.53;100.00
21203;BME280;10759;51.982;9.232;2023-02-18T05:41:33;100381.13;;;9.10;100.00
21203;BME280;10759;51.982;9.232;2023-02-18T05:44:01;100449.75;;;9.66;100.00
21203;BME280;10759;51.982;9.232;2023-02-18T05:46:47;100429.28;;;9.65;100.00
21203;BME280;10759;51.982;9.232;2023-02-18T05:49:14;100446.22;;;9.65;100.00
21203;BME280;10759;51.982;9.232;2023-02-18T05:51:42;100439.88;;;9.68;100.00
21203;BME280;10759;51.982;9.232;2023-02-18T05:54:12;100422.63;;;9.77;100.00
21203;BME280;10759;51.982;9.232;2023-02-18T05:56:40;100433.31;;;9.77;100.00
21203;BME280;10759;51.982;9.232;2023-02-18T05:59:08;100352.25;;;9.48;100.00
21203;BME280;10759;51.982;9.232;2023-02-18T06:01:36;100421.72;;;9.78;100.00
21203;BME280;10759;51.982;9.232;2023-02-18T06:04:04;100420.84;;;9.77;100.00
21203;BME280;10759;51.982;9.232;2023-02-18T06:06:32;100357.38;;;9.54;100.00
21203;BME280;10759;51.982;9.232;2023-02-18T06:09:00;100410.06;;;9.79;100.00
21203;BME280;10759;51.982;9.232;2023-02-18T06:11:30;100393.25;;;9.75;100.00
21203;BME280;10759;51.982;9.232;2023-02-18T06:13:58;100408.66;;;9.67;100.00
21203;BME280;10759;51.982;9.232;2023-02-18T06:16:26;100207.88;;;8.68;100.00
21203;BME280;10759;51.982;9.232;2023-02-18T06:18:54;100380.47;;;9.83;100.00
21203;BME280;10759;51.982;9.232;2023-02-18T06:21:23;100320.59;;;9.36;100.00
21203;BME280;10759;51.982;9.232;2023-02-18T06:23:50;100395.53;;;9.86;100.00
21203;BME280;10759;51.982;9.232;2023-02-18T06:26:18;100395.53;;;9.86;100.00
21203;BME280;10759;51.982;9.232;2023-02-18T06:28:48;100395.34;;;9.92;100.00
21203;BME280;10759;51.982;9.232;2023-02-18T06:31:16;100374.38;;;9.80;100.00
21203;BME280;10759;51.982;9.232;2023-02-18T06:33:44;100381.69;;;10.00;100.00
21203;BME280;10759;51.982;9.232;2023-02-18T06:36:12;100388.13;;;9.94;100.00
21203;BME280;10759;51.982;9.232;2023-02-18T06:38:42;100350.03;;;9.86;100.00
21203;BME280;10759;51.982;9.232;2023-02-18T06:41:12;100378.31;;;9.95;100.00
21203;BME280;10759;51.982;9.232;2023-02-18T06:43:40;100368.22;;;10.01;100.00
21203;BME280;10759;51.982;9.232;2023-02-18T06:46:10;100366.38;;;10.03;100.00
21203;BME280;10759;51.982;9.232;2023-02-18T06:48:38;100368.03;;;10.07;100.00
21203;BME280;10759;51.982;9.232;2023-02-18T06:51:06;100365.78;;;9.95;100.00
21203;BME280;10759;51.982;9.232;2023-02-18T06:53:34;100361.56;;;9.88;100.00
21203;BME280;10759;51.982;9.232;2023-02-18T06:56:02;100369.06;;;10.03;100.00
21203;BME280;10759;51.982;9.232;2023-02-18T06:58:30;100358.63;;;9.96;100.00
21203;BME280;10759;51.982;9.232;2023-02-18T07:00:58;100360.63;;;9.89;100.00
21203;BME280;10759;51.982;9.232;2023-02-18T07:03:28;100356.22;;;9.88;100.00
21203;BME280;10759;51.982;9.232;2023-02-18T07:05:56;100356.78;;;9.98;100.00
21203;BME280;10759;51.982;9.232;2023-02-18T07:08:24;100354.91;;;10.00;100.00
21203;BME280;10759;51.982;9.232;2023-02-18T07:10:52;100342.53;;;9.97;100.00
21203;BME280;10759;51.982;9.232;2023-02-18T07:13:20;100338.06;;;9.96;100.00
21203;BME280;10759;51.982;9.232;2023-02-18T07:15:48;100332.44;;;10.04;100.00
21203;BME280;10759;51.982;9.232;2023-02-18T07:18:16;100312.84;;;10.03;100.00
21203;BME280;10759;51.982;9.232;2023-02-18T07:20:45;100319.13;;;10.02;100.00
21203;BME280;10759;51.982;9.232;2023-02-18T07:23:13;100331.69;;;10.00;100.00
21203;BME280;10759;51.982;9.232;2023-02-18T07:25:41;100318.06;;;10.06;100.00
21203;BME280;10759;51.982;9.232;2023-02-18T07:28:09;100318.06;;;10.06;100.00
21203;BME280;10759;51.982;9.232;2023-02-18T07:30:37;100313.19;;;10.18;100.00
21203;BME280;10759;51.982;9.232;2023-02-18T07:33:05;100292.47;;;9.99;100.00
21203;BME280;10759;51.982;9.232;2023-02-18T07:35:33;100294.69;;;10.12;100.00
21203;BME280;10759;51.982;9.232;2023-02-18T07:38:03;100307.34;;;10.06;100.00
21203;BME280;10759;51.982;9.232;2023-02-18T07:40:31;100302.00;;;10.06;100.00
21203;BME280;10759;51.982;9.232;2023-02-18T07:42:59;100214.78;;;9.52;100.00
21203;BME280;10759;51.982;9.232;2023-02-18T07:45:27;100301.84;;;10.11;100.00
21203;BME280;10759;51.982;9.232;2023-02-18T07:47:56;100196.25;;;9.48;100.00
21203;BME280;10759;51.982;9.232;2023-02-18T07:50:23;100313.03;;;10.22;100.00
21203;BME280;10759;51.982;9.232;2023-02-18T07:52:51;100281.03;;;9.94;100.00
21203;BME280;10759;51.982;9.232;2023-02-18T07:55:21;100288.53;;;10.09;100.00
21203;BME280;10759;51.982;9.232;2023-02-18T07:57:49;100303.53;;;10.14;100.00
21203;BME280;10759;51.982;9.232;2023-02-18T08:00:27;100314.16;;;10.17;100.00
21203;BME280;10759;51.982;9.232;2023-02-18T08:02:55;100292.03;;;10.12;100.00
21203;BME280;10759;51.982;9.232;2023-02-18T08:05:23;100306.81;;;10.22;100.00
21203;BME280;10759;51.982;9.232;2023-02-18T08:07:51;100278.03;;;10.03;100.00
21203;BME280;10759;51.982;9.232;2023-02-18T08:10:21;100294.25;;;10.24;100.00
21203;BME280;10759;51.982;9.232;2023-02-18T08:12:49;100286.13;;;10.25;100.00
21203;BME280;10759;51.982;9.232;2023-02-18T08:15:17;100286.94;;;10.29;100.00
21203;BME280;10759;51.982;9.232;2023-02-18T08:17:45;100292.47;;;10.23;100.00
21203;BME280;10759;51.982;9.232;2023-02-18T08:20:13;100270.41;;;10.16;100.00
21203;BME280;10759;51.982;9.232;2023-02-18T08:22:41;100309.09;;;10.32;100.00
21203;BME280;10759;51.982;9.232;2023-02-18T08:25:08;100301.19;;;10.29;100.00
21203;BME280;10759;51.982;9.232;2023-02-18T08:27:55;100275.84;;;10.15;100.00
21203;BME280;10759;51.982;9.232;2023-02-18T08:30:23;100292.59;;;10.20;100.00
21203;BME280;10759;51.982;9.232;2023-02-18T08:32:52;100249.88;;;10.17;100.00
21203;BME280;10759;51.982;9.232;2023-02-18T08:35:20;100274.25;;;10.34;100.00
21203;BME280;10759;51.982;9.232;2023-02-18T08:37:48;100235.19;;;10.03;100.00
21203;BME280;10759;51.982;9.232;2023-02-18T08:40:20;100288.97;;;10.21;100.00
21203;BME280;10759;51.982;9.232;2023-02-18T08:42:48;100271.41;;;10.14;100.00
21203;BME280;10759;51.982;9.232;2023-02-18T08:45:18;100289.63;;;10.27;100.00
21203;BME280;10759;51.982;9.232;2023-02-18T08:47:46;100261.16;;;10.25;100.00
21203;BME280;10759;51.982;9.232;2023-02-18T08:50:34;100269.09;;;10.28;100.00
21203;BME280;10759;51.982;9.232;2023-02-18T08:53:03;100258.38;;;10.04;100.00
21203;BME280;10759;51.982;9.232;2023-02-18T08:55:32;100273.59;;;10.26;100.00
21203;BME280;10759;51.982;9.232;2023-02-18T08:58:03;100216.06;;;9.91;100.00
21203;BME280;10759;51.982;9.232;2023-02-18T09:00:33;100190.56;;;9.80;100.00
21203;BME280;10759;51.982;9.232;2023-02-18T09:03:01;100281.63;;;10.26;100.00
21203;BME280;10759;51.982;9.232;2023-02-18T09:05:29;100278.19;;;10.24;100.00
21203;BME280;10759;51.982;9.232;2023-02-18T09:07:57;100254.59;;;10.10;100.00
21203;BME280;10759;51.982;9.232;2023-02-18T09:10:25;100172.84;;;9.78;100.00
21203;BME280;10759;51.982;9.232;2023-02-18T09:12:53;100261.88;;;10.30;100.00
21203;BME280;10759;51.982;9.232;2023-02-18T09:15:21;100269.06;;;10.29;100.00
21203;BME280;10759;51.982;9.232;2023-02-18T09:17:51;100271.00;;;10.24;100.00
21203;BME280;10759;51.982;9.232;2023-02-18T09:20:19;100223.44;;;10.07;100.00
21203;BME280;10759;51.982;9.232;2023-02-18T09:22:47;100255.75;;;10.26;100.00
21203;BME280;10759;51.982;9.232;2023-02-18T09:25:15;100251.41;;;10.24;100.00
21203;BME280;10759;51.982;9.232;2023-02-18T09:27:43;100252.13;;;10.27;100.00
21203;BME280;10759;51.982;9.232;2023-02-18T09:30:11;100187.66;;;9.86;100.00
21203;BME280;10759;51.982;9.232;2023-02-18T09:32:40;100233.22;;;10.08;100.00
21203;BME280;10759;51.982;9.232;2023-02-18T09:35:09;100228.84;;;10.06;100.00
21203;BME280;10759;51.982;9.232;2023-02-18T09:37:37;100228.16;;;10.24;100.00
21203;BME280;10759;51.982;9.232;2023-02-18T09:40:07;100219.59;;;10.15;100.00
21203;BME280;10759;51.982;9.232;2023-02-18T09:42:41;100225.69;;;10.18;100.00
21203;BME280;10759;51.982;9.232;2023-02-18T09:45:10;100223.44;;;10.31;100.00
21203;BME280;10759;51.982;9.232;2023-02-18T09:47:41;100239.25;;;10.39;100.00
21203;BME280;10759;51.982;9.232;2023-02-18T09:50:17;100223.41;;;10.55;100.00
21203;BME280;10759;51.982;9.232;2023-02-18T09:52:46;100230.22;;;10.63;100.00
21203;BME280;10759;51.982;9.232;2023-02-18T09:55:19;99962.94;;;9.17;100.00
21203;BME280;10759;51.982;9.232;2023-02-18T09:57:49;100222.09;;;10.65;100.00
21203;BME280;10759;51.982;9.232;2023-02-18T10:00:20;100195.94;;;10.49;100.00
21203;BME280;10759;51.982;9.232;2023-02-18T10:02:54;100243.41;;;10.68;100.00
21203;BME280;10759;51.982;9.232;2023-02-18T10:05:25;100240.72;;;10.68;100.00
21203;BME280;10759;51.982;9.232;2023-02-18T10:07:58;100216.75;;;10.43;100.00
21203;BME280;10759;51.982;9.232;2023-02-18T10:10:34;100245.59;;;10.58;100.00
21203;BME280;10759;51.982;9.232;2023-02-18T10:13:03;100233.94;;;10.59;100.00
21203;BME280;10759;51.982;9.232;2023-02-18T10:15:33;100237.69;;;10.55;100.00
21203;BME280;10759;51.982;9.232;2023-02-18T10:18:02;100217.72;;;10.40;100.00
21203;BME280;10759;51.982;9.232;2023-02-18T10:20:34;100217.19;;;10.32;100.00
21203;BME280;10759;51.982;9.232;2023-02-18T10:23:02;100179.66;;;10.08;100.00
21203;BME280;10759;51.982;9.232;2023-02-18T10:25:33;100230.25;;;10.40;100.00
21203;BME280;10759;51.982;9.232;2023-02-18T10:28:05;100229.22;;;10.44;100.00
21203;BME280;10759;51.982;9.232;2023-02-18T10:30:37;100228.31;;;10.43;100.00
21203;BME280;10759;51.982;9.232;2023-02-18T10:33:20;100218.81;;;10.36;100.00
21203;BME280;10759;51.982;9.232;2023-02-18T10:35:52;100218.16;;;10.29;100.00
21203;BME280;10759;51.982;9.232;2023-02-18T10:38:28;100213.44;;;10.36;100.00
21203;BME280;10759;51.982;9.232;2023-02-18T10:41:03;99941.81;;;8.64;100.00
21203;BME280;10759;51.982;9.232;2023-02-18T10:43:40;100244.81;;;10.32;100.00
21203;BME280;10759;51.982;9.232;2023-02-18T10:46:16;100053.00;;;9.15;100.00
21203;BME280;10759;51.982;9.232;2023-02-18T10:49:15;100250.56;;;10.22;100.00
21203;BME280;10759;51.982;9.232;2023-02-18T10:51:55;100220.47;;;10.15;100.00
21203;BME280;10759;51.982;9.232;2023-02-18T10:54:25;100245.78;;;10.31;100.00
21203;BME280;10759;51.982;9.232;2023-02-18T10:56:58;100250.00;;;10.37;100.00
21203;BME280;10759;51.982;9.232;2023-02-18T10:59:31;100242.84;;;10.38;100.00
21203;BME280;10759;51.982;9.232;2023-02-18T11:02:02;100218.97;;;10.08;100.00
21203;BME280;10759;51.982;9.232;2023-02-18T11:04:34;100225.88;;;10.14;100.00
21203;BME280;10759;51.982;9.232;2023-02-18T11:07:09;100200.22;;;10.08;100.00
21203;BME280;10759;51.982;9.232;2023-02-18T11:09:41;100198.06;;;10.18;100.00
21203;BME280;10759;51.982;9.232;2023-02-18T11:12:14;100209.34;;;10.26;100.00
21203;BME280;10759;51.982;9.232;2023-02-18T11:14:45;100223.34;;;10.34;100.00
21203;BME280;10759;51.982;9.232;2023-02-18T11:17:18;100238.44;;;10.37;100.00
21203;BME280;10759;51.982;9.232;2023-02-18T11:19:55;100235.19;;;10.27;100.00
21203;BME280;10759;51.982;9.232;2023-02-18T11:22:28;100242.59;;;10.20;100.00
21203;BME280;10759;51.982;9.232;2023-02-18T11:24:58;100254.53;;;10.12;100.00
21203;BME280;10759;51.982;9.232;2023-02-18T11:27:30;100238.09;;;10.21;100.00
21203;BME280;10759;51.982;9.232;2023-02-18T11:30:01;100185.59;;;9.70;100.00
21203;BME280;10759;51.982;9.232;2023-02-18T11:32:33;100192.47;;;9.77;100.00
21203;BME280;10759;51.982;9.232;2023-02-18T11:35:03;100120.28;;;9.28;100.00
21203;BME280;10759;51.982;9.232;2023-02-18T11:37:34;100262.56;;;10.12;100.00
21203;BME280;10759;51.982;9.232;2023-02-18T11:40:05;100255.38;;;9.88;100.00
21203;BME280;10759;51.982;9.232;2023-02-18T11:42:33;100242.66;;;9.95;100.00
21203;BME280;10759;51.982;9.232;2023-02-18T11:45:01;100239.91;;;9.97;100.00
21203;BME280;10759;51.982;9.232;2023-02-18T11:47:32;100253.25;;;9.98;100.00
21203;BME280;10759;51.982;9.232;2023-02-18T11:50:05;100257.78;;;9.96;100.00
21203;BME280;10759;51.982;9.232;2023-02-18T11:52:43;100245.22;;;9.98;100.00
21203;BME280;10759;51.982;9.232;2023-02-18T11:55:16;100269.13;;;10.03;100.00
21203;BME280;10759;51.982;9.232;2023-02-18T11:57:47;100132.88;;;9.24;100.00
21203;BME280;10759;51.982;9.232;2023-02-18T12:00:24;100250.03;;;9.88;100.00
21203;BME280;10759;51.982;9.232;2023-02-18T12:02:59;100197.75;;;9.55;100.00
21203;BME280;10759;51.982;9.232;2023-02-18T12:05:31;100242.28;;;9.81;100.00
21203;BME280;10759;51.982;9.232;2023-02-18T12:08:04;100260.53;;;9.95;100.00
21203;BME280;10759;51.982;9.232;2023-02-18T12:10:37;100226.41;;;9.76;100.00
21203;BME280;10759;51.982;9.232;2023-02-18T12:13:18;100257.91;;;9.93;100.00
21203;BME280;10759;51.982;9.232;2023-02-18T12:15:54;100237.06;;;9.78;100.00
21203;BME280;10759;51.982;9.232;2023-02-18T12:18:35;100260.06;;;9.82;100.00
21203;BME280;10759;51.982;9.232;2023-02-18T12:21:21;100248.22;;;9.89;100.00
21203;BME280;10759;51.982;9.232;2023-02-18T12:24:02;100251.72;;;9.91;100.00
21203;BME280;10759;51.982;9.232;2023-02-18T12:26:44;100249.28;;;9.85;100.00
21203;BME280;10759;51.982;9.232;2023-02-18T12:29:40;100260.19;;;9.79;100.00
21203;BME280;10759;51.982;9.232;2023-02-18T12:32:31;100238.66;;;9.82;100.00
21203;BME280;10759;51.982;9.232;2023-02-18T12:35:14;100251.72;;;9.91;100.00
21203;BME280;10759;51.982;9.232;2023-02-18T12:37:59;100234.13;;;9.84;100.00
21203;BME280;10759;51.982;9.232;2023-02-18T12:40:46;100258.22;;;9.84;100.00
21203;BME280;10759;51.982;9.232;2023-02-18T12:43:27;100260.97;;;9.82;100.00
21203;BME280;10759;51.982;9.232;2023-02-18T12:46:14;100244.47;;;9.70;100.00
21203;BME280;10759;51.982;9.232;2023-02-18T12:48:51;100260.91;;;9.84;100.00
21203;BME280;10759;51.982;9.232;2023-02-18T12:51:27;100260.69;;;9.90;100.00
21203;BME280;10759;51.982;9.232;2023-02-18T12:54:26;100263.38;;;9.90;100.00
21203;BME280;10759;51.982;9.232;2023-02-18T12:57:25;100266.63;;;9.98;100.00
21203;BME280;10759;51.982;9.232;2023-02-18T13:00:26;100277.03;;;9.82;100.00
21203;BME280;10759;51.982;9.232;2023-02-18T13:03:15;100283.56;;;9.74;100.00
21203;BME280;10759;51.982;9.232;2023-02-18T13:05:52;100272.66;;;9.80;100.00
21203;BME280;10759;51.982;9.232;2023-02-18T13:08:34;100290.47;;;9.81;100.00
21203;BME280;10759;51.982;9.232;2023-02-18T13:11:19;100280.91;;;9.74;100.00
21203;BME280;10759;51.982;9.232;2023-02-18T13:13:57;100276.50;;;9.73;100.00
21203;BME280;10759;51.982;9.232;2023-02-18T13:16:28;100247.22;;;9.68;100.00
21203;BME280;10759;51.982;9.232;2023-02-18T13:19:01;100211.63;;;9.41;100.00
21203;BME280;10759;51.982;9.232;2023-02-18T13:21:30;100278.09;;;9.77;100.00